createdAt,value
2022-12-27T00:01:12.160Z,73.21
2022-12-27T00:03:39.985Z,73.38
2022-12-27T00:06:11.462Z,73.59
2022-12-27T00:08:38.418Z,73.81
2022-12-27T00:11:10.243Z,74.02
2022-12-27T00:13:37.192Z,74.05
2022-12-27T00:16:08.999Z,74.18
2022-12-27T00:18:36.196Z,74.51
2022-12-27T00:21:03.448Z,74.69
2022-12-27T00:23:32.673Z,74.83
2022-12-27T00:26:03.725Z,75.00
2022-12-27T00:28:34.249Z,75.10
2022-12-27T00:31:03.413Z,75.09
2022-12-27T00:33:30.996Z,75.27
2022-12-27T00:36:02.437Z,75.42
2022-12-27T00:38:29.409Z,75.57
2022-12-27T00:40:56.334Z,75.79
2022-12-27T00:43:24.178Z,75.82
2022-12-27T00:45:51.150Z,75.77
2022-12-27T00:48:17.951Z,75.71
2022-12-27T00:50:45.115Z,75.62
2022-12-27T00:53:12.394Z,75.80
2022-12-27T00:55:39.520Z,75.88
2022-12-27T00:58:06.474Z,75.88
2022-12-27T01:00:33.512Z,76.03
2022-12-27T01:03:00.556Z,75.94
2022-12-27T01:05:27.390Z,75.83
2022-12-27T01:07:54.441Z,75.89
2022-12-27T01:10:21.426Z,75.85
2022-12-27T01:12:48.333Z,75.93
2022-12-27T01:15:15.197Z,76.03
2022-12-27T01:17:42.124Z,76.11
2022-12-27T01:20:09.387Z,76.03
2022-12-27T01:22:36.516Z,75.84
2022-12-27T01:25:03.879Z,75.61
2022-12-27T01:27:30.709Z,75.48
2022-12-27T01:29:57.664Z,75.43
2022-12-27T01:32:24.611Z,75.30
2022-12-27T01:34:51.656Z,75.20
2022-12-27T01:37:18.710Z,75.20
2022-12-27T01:39:45.527Z,75.15
2022-12-27T01:42:35.843Z,75.13
2022-12-27T01:45:16.473Z,75.19
2022-12-27T01:48:09.969Z,75.22
2022-12-27T01:50:48.788Z,75.50
2022-12-27T01:53:28.640Z,75.67
2022-12-27T01:55:59.488Z,75.73
2022-12-27T01:58:55.193Z,75.65
2022-12-27T02:01:24.885Z,75.60
2022-12-27T02:04:19.091Z,75.65
2022-12-27T02:06:46.241Z,75.77
2022-12-27T02:09:36.731Z,75.99
2022-12-27T02:12:05.427Z,76.15
2022-12-27T02:14:39.251Z,76.36
2022-12-27T02:17:08.046Z,76.35
2022-12-27T02:19:41.287Z,76.26
2022-12-27T02:23:05.051Z,76.09
2022-12-27T02:25:53.630Z,76.36
2022-12-27T02:28:33.068Z,76.45
2022-12-27T02:31:09.599Z,76.61
2022-12-27T02:33:38.230Z,76.75
2022-12-27T02:36:06.109Z,76.76
2022-12-27T02:38:44.600Z,76.76
2022-12-27T02:41:30.271Z,76.77
2022-12-27T02:44:16.589Z,76.94
2022-12-27T02:47:02.374Z,77.14
2022-12-27T02:49:49.116Z,77.36
2022-12-27T02:52:41.215Z,77.52
2022-12-27T02:55:14.202Z,77.60
2022-12-27T02:57:53.178Z,77.49
2022-12-27T03:00:39.957Z,77.49
2022-12-27T03:03:32.223Z,77.59
2022-12-27T03:06:24.236Z,77.70
2022-12-27T03:09:09.940Z,77.71
2022-12-27T03:12:05.913Z,77.62
2022-12-27T03:15:01.635Z,77.48
2022-12-27T03:17:37.704Z,77.50
2022-12-27T03:20:25.987Z,77.60
2022-12-27T03:23:11.829Z,77.59
2022-12-27T03:25:41.056Z,77.54
2022-12-27T03:28:38.178Z,77.49
2022-12-27T03:31:30.948Z,77.48
2022-12-27T03:34:04.785Z,77.44
2022-12-27T03:36:50.383Z,77.49
2022-12-27T03:39:20.904Z,77.52
2022-12-27T03:42:09.599Z,77.69
2022-12-27T03:44:36.472Z,77.66
2022-12-27T03:47:17.517Z,77.48
2022-12-27T03:49:48.683Z,77.39
2022-12-27T03:52:25.539Z,77.19
2022-12-27T03:54:52.995Z,77.02
2022-12-27T03:57:25.314Z,76.75
2022-12-27T03:59:52.510Z,76.42
2022-12-27T04:02:19.576Z,76.32
2022-12-27T04:04:46.715Z,76.31
2022-12-27T04:07:13.906Z,76.17
2022-12-27T04:09:59.851Z,76.07
2022-12-27T04:12:45.643Z,76.17
2022-12-27T04:15:31.439Z,76.13
2022-12-27T04:18:17.600Z,76.14
2022-12-27T04:21:03.186Z,76.37
2022-12-27T04:23:48.610Z,76.31
2022-12-27T04:26:34.168Z,76.18
2022-12-27T04:29:19.694Z,76.20
2022-12-27T04:32:05.275Z,76.43
2022-12-27T04:34:44.286Z,76.65
2022-12-27T04:37:16.864Z,76.84
2022-12-27T04:40:04.250Z,76.87
2022-12-27T04:42:49.676Z,76.76
2022-12-27T04:45:35.186Z,76.77
2022-12-27T04:48:20.808Z,77.09
2022-12-27T04:51:06.249Z,77.21
2022-12-27T04:53:51.826Z,77.25
2022-12-27T04:56:18.688Z,77.22
2022-12-27T04:59:05.466Z,77.01
2022-12-27T05:01:51.085Z,76.88
2022-12-27T05:04:18.047Z,76.87
2022-12-27T05:06:44.885Z,76.83
2022-12-27T05:09:30.469Z,76.80
2022-12-27T05:12:15.883Z,76.78
2022-12-27T05:14:42.739Z,76.56
2022-12-27T05:17:09.633Z,76.52
2022-12-27T05:19:36.471Z,76.44
2022-12-27T05:22:21.937Z,76.48
2022-12-27T05:25:07.466Z,76.66
2022-12-27T05:27:34.479Z,76.69
2022-12-27T05:30:01.678Z,76.93
2022-12-27T05:32:28.452Z,77.09
2022-12-27T05:34:55.397Z,76.95
2022-12-27T05:37:22.264Z,76.99
2022-12-27T05:39:49.090Z,77.06
2022-12-27T05:42:17.061Z,77.22
2022-12-27T05:44:43.878Z,77.30
2022-12-27T05:47:10.651Z,77.45
2022-12-27T05:49:37.567Z,77.29
2022-12-27T05:52:04.577Z,77.30
2022-12-27T05:54:31.355Z,77.25
2022-12-27T05:56:58.201Z,77.41
2022-12-27T05:59:25.027Z,77.39
2022-12-27T06:01:51.963Z,77.42
2022-12-27T06:04:18.887Z,77.55
2022-12-27T06:06:45.816Z,77.30
2022-12-27T06:09:12.683Z,77.04
2022-12-27T06:11:39.542Z,76.88
2022-12-27T06:14:06.391Z,77.02
2022-12-27T06:16:36.168Z,77.07
2022-12-27T06:19:03.057Z,77.16
2022-12-27T06:21:30.081Z,77.28
2022-12-27T06:23:56.917Z,77.16
2022-12-27T06:26:25.519Z,76.87
2022-12-27T06:28:52.701Z,76.70
2022-12-27T06:31:20.115Z,76.87
2022-12-27T06:33:50.479Z,76.93
2022-12-27T06:36:19.010Z,76.89
2022-12-27T06:38:46.003Z,77.07
2022-12-27T06:41:13.895Z,76.90
2022-12-27T06:43:40.911Z,76.73
2022-12-27T06:46:16.882Z,76.76
2022-12-27T06:48:46.288Z,76.75
2022-12-27T06:51:13.392Z,76.82
2022-12-27T06:53:42.508Z,76.78
2022-12-27T06:56:11.098Z,76.88
2022-12-27T06:58:37.963Z,76.81
2022-12-27T07:01:12.045Z,76.80
2022-12-27T09:17:27.319Z,81.49
2022-12-27T09:19:54.378Z,78.82
2022-12-27T09:22:23.464Z,78.44
2022-12-27T09:24:50.429Z,78.09
2022-12-27T09:27:17.459Z,77.66
2022-12-27T09:29:48.233Z,77.44
2022-12-27T09:32:15.466Z,77.20
2022-12-27T09:34:42.499Z,77.14
2022-12-27T09:37:09.432Z,77.13
2022-12-27T09:39:36.588Z,77.27
2022-12-27T09:45:44.403Z,77.62
2022-12-27T09:48:33.053Z,77.62
2022-12-27T09:51:16.397Z,77.56
2022-12-27T09:53:48.169Z,77.50
2022-12-27T09:56:21.696Z,76.95
2022-12-27T09:58:56.427Z,76.64
2022-12-27T10:01:33.155Z,76.66
2022-12-27T10:04:00.651Z,76.74
2022-12-27T10:06:33.695Z,77.07
2022-12-27T10:09:16.849Z,76.97
2022-12-27T10:11:46.242Z,77.02
2022-12-27T10:14:40.910Z,77.16
2022-12-27T10:17:49.368Z,77.21
2022-12-27T10:20:40.765Z,77.46
2022-12-27T10:23:11.644Z,77.45
2022-12-27T10:25:39.448Z,77.61
2022-12-27T10:28:16.179Z,78.02
2022-12-27T10:30:43.680Z,78.35
2022-12-27T10:33:22.607Z,78.47
2022-12-27T10:35:49.454Z,78.61
2022-12-27T10:38:19.199Z,78.51
2022-12-27T10:41:15.937Z,78.52
2022-12-27T10:43:43.409Z,78.50
2022-12-27T10:46:21.291Z,78.63
2022-12-27T10:49:20.246Z,78.43
2022-12-27T10:51:41.574Z,78.04
2022-12-27T10:54:24.286Z,77.67
2022-12-27T10:56:51.430Z,77.47
2022-12-27T10:59:28.851Z,77.63
2022-12-27T11:02:02.573Z,77.42
2022-12-27T11:04:30.926Z,77.20
2022-12-27T11:07:01.026Z,76.98
2022-12-27T11:09:33.219Z,77.04
2022-12-27T11:12:26.192Z,77.04
2022-12-27T11:15:09.868Z,76.91
2022-12-27T11:18:07.735Z,76.72
2022-12-27T11:20:39.315Z,76.80
2022-12-27T11:23:09.421Z,76.53
2022-12-27T11:25:58.690Z,76.50
2022-12-27T11:28:39.055Z,76.35
2022-12-27T11:31:11.714Z,76.47
2022-12-27T11:33:55.265Z,76.64
2022-12-27T11:36:31.505Z,76.81
2022-12-27T11:38:58.878Z,76.68
2022-12-27T11:41:30.043Z,76.53
2022-12-27T11:44:21.243Z,76.42
2022-12-27T11:47:12.561Z,76.18
2022-12-27T11:50:03.461Z,76.32
2022-12-27T11:52:43.932Z,76.47
2022-12-27T11:55:30.023Z,76.56
2022-12-27T11:58:28.199Z,76.68
2022-12-27T12:01:20.148Z,76.69
2022-12-27T12:04:12.070Z,76.77
2022-12-27T12:06:46.908Z,76.73
2022-12-27T12:09:29.496Z,76.48
2022-12-27T12:12:48.148Z,76.08
2022-12-27T12:15:22.582Z,75.95
2022-12-27T12:18:22.606Z,75.50
2022-12-27T12:21:27.652Z,75.57
2022-12-27T12:24:19.787Z,75.47
2022-12-27T12:26:55.521Z,75.06
2022-12-27T12:29:39.149Z,74.57
2022-12-27T12:32:37.494Z,74.73
2022-12-27T12:35:26.185Z,74.97
2022-12-27T12:38:11.149Z,74.90
2022-12-27T12:41:15.065Z,74.19
2022-12-27T12:43:46.325Z,73.58
2022-12-27T12:46:29.006Z,73.05
2022-12-27T12:49:08.357Z,72.89
2022-12-27T12:51:50.902Z,72.67
2022-12-27T12:54:45.957Z,72.23
2022-12-27T12:57:23.257Z,71.80
2022-12-27T13:00:10.145Z,70.78
2022-12-27T13:02:58.955Z,70.97
2022-12-27T13:05:44.304Z,71.06
2022-12-27T17:21:39.190Z,64.16
2022-12-27T17:24:13.341Z,63.10
2022-12-27T17:27:02.228Z,62.69
2022-12-27T17:29:30.086Z,62.62
2022-12-27T17:32:09.960Z,62.64
2022-12-27T17:34:44.386Z,62.51
2022-12-27T17:37:17.034Z,62.38
2022-12-27T17:40:06.093Z,62.19
2022-12-27T17:43:11.128Z,61.95
2022-12-27T17:45:59.774Z,62.13
2022-12-27T17:48:30.936Z,62.26
2022-12-27T17:51:12.421Z,62.01
2022-12-27T17:54:11.759Z,62.22
2022-12-27T17:57:05.197Z,62.28
2022-12-27T17:59:34.204Z,62.16
2022-12-27T18:02:07.011Z,62.08
2022-12-27T18:04:35.562Z,62.20
2022-12-27T18:07:07.692Z,62.02
2022-12-27T18:09:39.881Z,62.36
2022-12-27T18:12:40.696Z,61.99
2022-12-27T18:15:15.771Z,61.51
2022-12-27T18:18:03.945Z,61.41
2022-12-27T18:20:34.195Z,61.51
2022-12-27T18:23:01.189Z,61.20
2022-12-27T18:25:40.533Z,61.00
2022-12-27T18:28:16.741Z,60.80
2022-12-27T18:30:53.853Z,60.85
2022-12-27T18:33:25.571Z,60.92
2022-12-27T18:35:52.517Z,60.72
2022-12-27T18:38:32.673Z,60.71
2022-12-27T18:41:02.560Z,60.55
2022-12-27T18:43:29.530Z,60.32
2022-12-27T18:45:56.505Z,60.26
2022-12-27T18:48:23.938Z,60.32
2022-12-27T18:50:53.307Z,60.29
2022-12-27T18:53:25.236Z,59.88
2022-12-27T18:56:16.406Z,60.31
2022-12-27T18:59:06.053Z,60.37
2022-12-27T19:01:40.970Z,59.94
2022-12-27T19:04:14.516Z,60.05
2022-12-27T19:06:42.547Z,60.18
2022-12-27T19:09:14.443Z,60.25
2022-12-27T19:11:41.397Z,60.48
2022-12-27T19:14:12.436Z,60.17
2022-12-27T19:16:39.411Z,60.41
2022-12-27T19:19:19.774Z,60.34
2022-12-27T19:21:46.687Z,60.13
2022-12-27T19:24:30.827Z,60.01
2022-12-27T19:27:01.007Z,59.72
2022-12-27T19:29:33.358Z,59.70
2022-12-27T19:32:09.780Z,59.75
2022-12-27T19:34:44.474Z,59.65
2022-12-27T19:37:11.759Z,59.42
2022-12-27T19:39:39.173Z,59.20
2022-12-27T19:42:07.906Z,59.17
2022-12-27T19:44:37.419Z,58.85
2022-12-27T19:47:04.576Z,58.56
2022-12-27T19:49:42.694Z,58.49
2022-12-27T19:52:18.492Z,58.67
2022-12-27T19:54:49.039Z,58.84
2022-12-27T19:57:16.506Z,58.78
2022-12-27T19:59:44.623Z,58.35
2022-12-27T20:02:12.906Z,58.72
2022-12-27T20:04:42.899Z,58.85
2022-12-27T20:07:15.161Z,58.72
2022-12-27T20:09:42.389Z,58.67
2022-12-27T20:12:11.910Z,58.74
2022-12-27T20:14:39.152Z,58.94
2022-12-27T20:17:06.292Z,59.19
2022-12-27T20:19:33.758Z,59.31
2022-12-27T20:22:01.026Z,59.41
2022-12-27T20:24:31.752Z,59.55
2022-12-27T20:27:01.553Z,59.88
2022-12-27T20:29:32.807Z,60.09
2022-12-27T20:31:59.943Z,60.29
2022-12-27T20:34:27.044Z,60.16
2022-12-27T20:36:55.614Z,60.20
2022-12-27T20:39:26.838Z,60.20
2022-12-27T20:41:56.121Z,60.25
2022-12-27T20:44:23.091Z,60.55
2022-12-27T20:46:52.289Z,60.70
2022-12-27T20:49:21.469Z,60.55
2022-12-27T20:51:48.806Z,60.36
2022-12-27T20:54:18.320Z,60.10
2022-12-27T20:56:45.262Z,59.72
2022-12-27T20:59:12.209Z,59.86
2022-12-27T21:01:39.610Z,60.00
2022-12-27T21:04:06.812Z,60.26
2022-12-27T21:06:33.763Z,60.28
2022-12-27T21:09:00.721Z,60.11
2022-12-27T21:11:31.666Z,59.97
2022-12-27T21:14:03.218Z,59.46
2022-12-27T21:16:33.175Z,59.03
2022-12-27T21:19:05.132Z,58.90
2022-12-27T21:21:36.830Z,58.57
2022-12-27T21:24:06.383Z,58.53
2022-12-27T21:26:36.174Z,58.50
2022-12-27T21:29:05.753Z,58.44
2022-12-27T21:31:33.193Z,58.44
2022-12-27T21:34:00.222Z,58.49
2022-12-27T21:36:29.888Z,58.98
2022-12-27T21:38:57.089Z,59.28
2022-12-27T21:41:36.482Z,59.38
2022-12-27T21:44:03.471Z,59.16
2022-12-27T21:46:35.009Z,59.10
2022-12-27T21:49:15.341Z,59.34
2022-12-27T21:51:42.743Z,59.23
2022-12-27T21:54:10.695Z,59.02
2022-12-27T21:56:37.951Z,58.86
2022-12-27T21:59:10.778Z,59.14
2022-12-27T22:01:51.026Z,59.31
2022-12-27T22:04:20.615Z,59.49
2022-12-27T22:06:48.143Z,59.28
2022-12-27T22:09:15.148Z,59.35
2022-12-27T22:11:42.084Z,59.52
2022-12-27T22:14:09.151Z,59.48
2022-12-27T22:16:37.308Z,59.91
2022-12-27T22:19:11.112Z,60.11
2022-12-27T22:21:38.798Z,60.46
2022-12-27T22:24:05.912Z,60.35
2022-12-27T22:26:39.782Z,60.70
2022-12-27T22:29:07.966Z,60.79
2022-12-27T22:31:38.320Z,59.98
2022-12-27T22:34:05.741Z,59.68
2022-12-27T22:36:32.823Z,59.87
2022-12-27T22:39:00.025Z,59.90
2022-12-27T22:41:31.870Z,60.08
2022-12-27T22:44:01.904Z,60.33
2022-12-27T22:46:39.337Z,60.45
2022-12-27T22:49:16.338Z,60.55
2022-12-27T22:51:45.596Z,60.54
2022-12-27T22:54:12.430Z,60.26
2022-12-27T22:56:40.253Z,60.36
2022-12-27T22:59:14.349Z,60.48
2022-12-27T23:01:41.480Z,60.55
2022-12-27T23:04:10.171Z,60.66
2022-12-27T23:06:37.383Z,60.29
2022-12-27T23:09:04.489Z,60.51
2022-12-27T23:11:33.418Z,60.69
2022-12-27T23:14:01.886Z,60.82
2022-12-27T23:16:29.236Z,61.06
2022-12-27T23:18:56.096Z,61.33
2022-12-27T23:21:24.776Z,61.55
2022-12-27T23:23:52.355Z,61.63
2022-12-27T23:26:21.235Z,61.62
2022-12-27T23:28:48.423Z,61.54
2022-12-27T23:31:18.771Z,61.35
2022-12-27T23:33:46.122Z,61.02
2022-12-27T23:36:13.337Z,60.85
2022-12-27T23:38:41.472Z,60.83
2022-12-27T23:41:09.064Z,60.56
2022-12-27T23:43:55.038Z,60.40
2022-12-27T23:46:25.137Z,60.52
2022-12-27T23:48:52.077Z,60.75
2022-12-27T23:51:18.995Z,60.97
2022-12-27T23:53:45.875Z,61.24
2022-12-27T23:56:20.788Z,61.64
2022-12-27T23:58:47.964Z,61.92
